Terminal Aerodrome Forecast
Issued by NWS

Home | Current Version | Previous Version | Text Only | Print | Product List | Glossary On
Versions: 1 2 3 4 5 6 7 8 9 10 11 12 13 14 15
000
FTUS43 KILX 311732
TAFDEC
TAF
KDEC 311732Z 3118/0118 35008KT P6SM SCT030 BKN150
      TEMPO 3118/3122 BKN030
     FM010100 02008KT P6SM SCT250=

USA.gov is the U.S. government's official web portal to all federal, state and local government web resources and services.